Time;durP1;ratioP1;P1;durP2;ratioP2;P2;SDS_P1;SDS_P2;PMS_P1;PMS_P2;Temp;Humidity;BMP_temperature;BMP_pressure;BME280_temperature;BME280_humidity;BME280_pressure;Samples;Min_cycle;Max_cycle;Signal;HPM_P1;HPM_P2
2022/08/28 00:01:31;;;;;;;4.00;3.47;;;22.70;99.90;;;;;;4976024;28;20029;-62
2022/08/28 00:03:58;;;;;;;4.38;3.30;;;22.70;99.90;;;;;;4976070;28;20392;-62
2022/08/28 00:06:24;;;;;;;3.92;3.53;;;22.60;99.90;;;;;;4976143;28;20057;-62
2022/08/28 00:08:50;;;;;;;3.13;2.88;;;22.60;99.90;;;;;;4976110;28;20023;-62
2022/08/28 00:11:16;;;;;;;4.28;3.00;;;22.60;99.90;;;;;;4975932;28;20081;-61
2022/08/28 00:13:42;;;;;;;3.28;3.00;;;22.60;99.90;;;;;;4976039;28;20039;-62
2022/08/28 00:16:08;;;;;;;3.38;2.92;;;22.60;99.90;;;;;;4975682;28;20019;-62
2022/08/28 00:18:33;;;;;;;2.67;2.42;;;22.60;99.90;;;;;;4975802;28;20030;-62
2022/08/28 00:21:00;;;;;;;2.60;2.40;;;22.60;99.90;;;;;;4975871;28;20388;-62
2022/08/28 00:23:26;;;;;;;3.15;2.25;;;22.60;99.90;;;;;;4975779;28;20035;-62
2022/08/28 00:25:52;;;;;;;3.80;2.25;;;22.60;99.90;;;;;;4975466;28;20061;-61
2022/08/28 00:28:18;;;;;;;2.92;2.40;;;22.60;99.90;;;;;;4958350;28;20031;-62
2022/08/28 00:30:50;;;;;;;3.17;2.53;;;22.60;99.90;;;;;;4975464;28;20027;-62
2022/08/28 00:33:21;;;;;;;2.60;2.38;;;22.60;99.90;;;;;;4975467;28;20034;-62
2022/08/28 00:35:48;;;;;;;3.22;2.90;;;22.50;99.90;;;;;;4975557;28;20465;-61
2022/08/28 00:38:17;;;;;;;3.95;2.53;;;22.50;99.90;;;;;;4975578;28;20054;-62
2022/08/28 00:40:44;;;;;;;3.28;2.63;;;22.40;99.90;;;;;;4975370;28;20022;-62
2022/08/28 00:43:38;;;;;;;3.40;2.70;;;22.40;99.90;;;;;;4975054;28;20033;-61
2022/08/28 00:46:14;;;;;;;2.78;2.42;;;22.40;99.90;;;;;;4957727;28;20034;-62
2022/08/28 00:48:40;;;;;;;3.05;2.50;;;22.30;99.90;;;;;;4975317;28;20077;-62
2022/08/28 00:53:53;;;;;;;4.75;2.65;;;22.30;99.90;;;;;;4975246;28;20417;-61
2022/08/28 00:56:19;;;;;;;2.60;2.40;;;22.30;99.90;;;;;;4975194;28;20042;-61
2022/08/28 00:58:48;;;;;;;3.53;2.78;;;22.20;99.90;;;;;;4975064;28;20367;-61
2022/08/28 01:01:14;;;;;;;2.28;2.15;;;22.20;99.90;;;;;;4974921;28;20158;-61
2022/08/28 01:03:40;;;;;;;3.25;2.42;;;22.10;99.90;;;;;;4975112;28;20037;-61
2022/08/28 01:06:07;;;;;;;2.80;2.40;;;22.20;99.90;;;;;;4974959;28;20026;-62
2022/08/28 01:08:35;;;;;;;2.80;2.20;;;22.20;99.90;;;;;;4975043;28;20023;-61
2022/08/28 01:11:05;;;;;;;2.20;1.90;;;22.20;99.90;;;;;;4975008;28;20106;-61
2022/08/28 01:13:31;;;;;;;1.95;1.85;;;22.20;99.90;;;;;;4957435;28;20402;-62
2022/08/28 01:15:58;;;;;;;2.10;1.90;;;22.20;99.90;;;;;;4974663;28;20023;-61
2022/08/28 01:18:25;;;;;;;4.20;2.10;;;22.20;99.90;;;;;;4974847;28;20050;-61
2022/08/28 01:21:04;;;;;;;2.50;2.30;;;22.20;99.90;;;;;;4974739;28;20019;-61
2022/08/28 01:23:50;;;;;;;3.13;2.30;;;22.20;99.90;;;;;;4974703;28;20473;-62
2022/08/28 01:26:16;;;;;;;3.15;2.38;;;22.10;99.90;;;;;;4974602;28;20476;-61
2022/08/28 01:28:42;;;;;;;3.20;2.40;;;22.00;99.90;;;;;;4974562;28;20411;-61
2022/08/28 01:31:09;;;;;;;2.30;2.10;;;22.00;99.90;;;;;;4974566;28;20027;-61
2022/08/28 01:33:35;;;;;;;2.17;2.03;;;22.00;99.90;;;;;;4957136;28;20042;-61
2022/08/28 01:36:02;;;;;;;2.30;2.10;;;22.00;99.90;;;;;;4957250;28;20078;-61
2022/08/28 01:38:27;;;;;;;2.47;2.28;;;22.00;99.90;;;;;;4974600;28;20019;-61
2022/08/28 01:40:56;;;;;;;3.17;2.65;;;21.90;99.90;;;;;;4974477;28;20029;-61
2022/08/28 01:43:28;;;;;;;2.28;2.00;;;21.90;99.90;;;;;;4974386;28;20085;-62
2022/08/28 01:46:00;;;;;;;2.70;2.20;;;21.80;99.90;;;;;;4974463;28;20453;-62
2022/08/28 01:48:28;;;;;;;2.30;2.10;;;21.80;99.90;;;;;;4974630;28;20026;-62
2022/08/28 01:50:54;;;;;;;2.95;2.38;;;21.80;99.90;;;;;;4974543;28;20015;-62
2022/08/28 01:53:25;;;;;;;3.08;2.78;;;21.80;99.90;;;;;;4974517;28;20035;-61
2022/08/28 01:55:53;;;;;;;2.75;2.50;;;21.80;99.90;;;;;;4978533;28;20023;-61
2022/08/28 01:58:19;;;;;;;2.67;2.47;;;21.70;99.90;;;;;;4978264;28;20034;-62
2022/08/28 02:00:45;;;;;;;3.78;3.42;;;21.70;99.90;;;;;;4978296;28;20113;-61
2022/08/28 02:03:11;;;;;;;4.90;3.58;;;21.70;99.90;;;;;;4978403;28;20059;-62
2022/08/28 02:05:38;;;;;;;4.22;3.70;;;21.60;99.90;;;;;;4978443;28;20022;-61
2022/08/28 02:08:06;;;;;;;4.07;3.58;;;21.40;99.90;;;;;;4978191;28;20023;-61
2022/08/28 02:10:35;;;;;;;3.47;3.17;;;21.50;99.90;;;;;;4978261;28;20023;-61
2022/08/28 02:13:02;;;;;;;5.10;3.60;;;21.40;99.90;;;;;;4977904;28;20026;-61
2022/08/28 02:15:31;;;;;;;2.90;2.63;;;21.50;99.90;;;;;;4978100;28;20045;-62
2022/08/28 02:17:58;;;;;;;2.63;2.42;;;21.50;99.90;;;;;;4978113;28;20053;-62
2022/08/28 02:20:25;;;;;;;2.55;2.28;;;21.50;99.90;;;;;;4978122;28;20023;-61
2022/08/28 02:22:51;;;;;;;2.67;2.47;;;21.50;99.90;;;;;;4977867;28;20027;-62
2022/08/28 02:25:17;;;;;;;4.35;3.13;;;21.50;99.90;;;;;;4977834;28;20027;-62
2022/08/28 02:27:44;;;;;;;2.90;2.53;;;21.50;99.90;;;;;;4960475;28;20374;-61
2022/08/28 02:30:12;;;;;;;4.55;2.90;;;21.40;99.90;;;;;;4977839;28;20024;-61
2022/08/28 02:32:38;;;;;;;3.50;2.75;;;21.40;99.90;;;;;;4977793;28;20031;-61
2022/08/28 02:35:06;;;;;;;4.57;3.40;;;21.30;99.90;;;;;;4977806;28;20030;-61
2022/08/28 02:37:32;;;;;;;2.75;2.50;;;21.30;99.90;;;;;;4977643;28;20393;-62
2022/08/28 02:39:59;;;;;;;2.22;2.13;;;21.30;99.90;;;;;;4977613;28;20014;-62
2022/08/28 02:42:25;;;;;;;3.10;2.80;;;21.30;99.90;;;;;;4977477;28;20033;-62
2022/08/28 02:44:51;;;;;;;3.38;2.53;;;21.30;99.90;;;;;;4977599;28;20049;-62
2022/08/28 02:47:17;;;;;;;2.42;2.22;;;21.30;99.90;;;;;;4977612;28;20473;-62
2022/08/28 02:49:43;;;;;;;2.92;2.10;;;21.30;99.90;;;;;;4977554;28;20023;-61
2022/08/28 02:52:09;;;;;;;2.72;2.53;;;21.30;99.90;;;;;;4977458;28;20106;-61
2022/08/28 02:54:38;;;;;;;2.38;2.17;;;21.30;99.90;;;;;;4977424;28;20027;-62
2022/08/28 02:57:07;;;;;;;3.10;2.50;;;21.20;99.90;;;;;;4977218;28;20054;-62
2022/08/28 02:59:35;;;;;;;3.25;2.75;;;21.20;99.90;;;;;;4977248;28;20027;-61
2022/08/28 03:02:02;;;;;;;3.22;2.50;;;21.30;99.90;;;;;;4977431;28;20015;-61
2022/08/28 03:04:30;;;;;;;2.35;2.15;;;21.30;99.90;;;;;;4977046;28;20077;-62
2022/08/28 03:06:58;;;;;;;3.78;2.55;;;21.30;99.90;;;;;;4977145;28;20027;-62
2022/08/28 03:09:24;;;;;;;4.10;2.50;;;21.30;99.90;;;;;;4976967;28;20026;-61
2022/08/28 03:11:52;;;;;;;3.17;2.72;;;21.20;99.90;;;;;;4977113;28;20478;-61
2022/08/28 03:14:19;;;;;;;6.43;5.13;;;21.10;99.90;;;;;;4976935;28;20030;-62
2022/08/28 03:16:45;;;;;;;5.63;4.60;;;21.10;99.90;;;;;;4977156;28;20109;-62
2022/08/28 03:19:11;;;;;;;4.70;4.28;;;21.00;99.90;;;;;;4977047;28;20058;-61
2022/08/28 03:21:36;;;;;;;6.13;4.50;;;20.90;99.90;;;;;;4959487;28;20030;-61
2022/08/28 03:24:02;;;;;;;8.55;6.07;;;20.90;99.90;;;;;;4976724;28;20038;-61
2022/08/28 03:26:28;;;;;;;5.25;4.32;;;20.80;99.90;;;;;;4976724;28;20082;-61
2022/08/28 03:28:56;;;;;;;5.07;3.85;;;20.70;99.90;;;;;;4976789;28;20073;-62
2022/08/28 03:31:25;;;;;;;3.60;3.05;;;20.80;99.90;;;;;;4976728;28;20027;-62
2022/08/28 03:33:52;;;;;;;3.72;3.38;;;20.90;99.90;;;;;;4976656;28;20031;-61
2022/08/28 03:36:21;;;;;;;4.72;3.13;;;20.90;99.90;;;;;;4976733;28;20029;-62
2022/08/28 03:38:48;;;;;;;3.60;2.63;;;20.90;99.90;;;;;;4976466;28;20026;-62
2022/08/28 03:41:17;;;;;;;3.08;2.72;;;21.00;99.90;;;;;;4976773;28;20536;-61
2022/08/28 03:43:44;;;;;;;3.35;2.53;;;21.00;99.90;;;;;;4976503;28;20027;-62
2022/08/28 03:46:14;;;;;;;2.58;2.38;;;21.00;99.90;;;;;;4976606;28;20023;-61
2022/08/28 03:48:40;;;;;;;3.97;2.97;;;21.00;99.90;;;;;;4976477;28;20019;-61
2022/08/28 03:51:07;;;;;;;3.10;2.80;;;21.00;99.90;;;;;;4976379;28;20493;-61
2022/08/28 03:53:33;;;;;;;2.65;2.45;;;21.00;99.90;;;;;;4976250;28;20027;-61
2022/08/28 03:55:59;;;;;;;2.53;2.33;;;21.00;99.90;;;;;;4959007;28;20029;-61
2022/08/28 03:58:26;;;;;;;3.40;3.10;;;21.00;99.90;;;;;;4976550;28;20015;-62
2022/08/28 04:00:51;;;;;;;3.63;3.25;;;21.00;99.90;;;;;;4976226;28;20026;-61
2022/08/28 04:03:18;;;;;;;3.85;2.78;;;21.00;99.90;;;;;;4976187;28;20073;-62
2022/08/28 04:05:44;;;;;;;3.10;2.67;;;21.00;99.90;;;;;;4976213;28;20046;-61
2022/08/28 04:08:15;;;;;;;3.13;2.88;;;21.00;99.90;;;;;;4975835;28;20022;-62
2022/08/28 04:10:42;;;;;;;5.55;3.25;;;21.10;99.90;;;;;;4958732;28;20077;-61
2022/08/28 04:13:09;;;;;;;3.03;2.72;;;21.00;99.90;;;;;;4975947;28;20033;-61
2022/08/28 04:15:35;;;;;;;3.25;2.95;;;21.00;99.90;;;;;;4975896;28;20385;-62
2022/08/28 04:18:01;;;;;;;3.17;2.83;;;21.00;99.90;;;;;;4975272;28;20091;-61
2022/08/28 04:20:27;;;;;;;3.95;2.80;;;21.00;99.90;;;;;;4975785;28;20023;-61
2022/08/28 04:22:53;;;;;;;3.83;3.50;;;21.00;99.90;;;;;;4975532;28;20034;-62
2022/08/28 04:25:19;;;;;;;3.03;2.70;;;20.90;99.90;;;;;;4975596;28;20461;-62
2022/08/28 04:27:44;;;;;;;3.33;2.65;;;20.80;99.90;;;;;;4975734;28;20022;-61
2022/08/28 04:30:11;;;;;;;3.70;2.80;;;20.80;99.90;;;;;;4975650;28;20033;-61
2022/08/28 04:32:38;;;;;;;3.45;2.85;;;20.90;99.90;;;;;;4975518;28;20054;-62
2022/08/28 04:35:05;;;;;;;2.95;2.40;;;20.90;99.90;;;;;;4975610;28;20029;-61
2022/08/28 04:37:31;;;;;;;2.60;2.40;;;20.90;99.90;;;;;;4957873;28;20417;-61
2022/08/28 04:39:57;;;;;;;2.97;2.55;;;20.90;99.90;;;;;;4975488;28;20073;-62
2022/08/28 04:42:23;;;;;;;7.15;5.03;;;21.00;99.90;;;;;;4975373;28;20030;-62
2022/08/28 04:44:49;;;;;;;3.30;3.00;;;20.90;99.90;;;;;;4975569;28;20378;-61
2022/08/28 04:47:14;;;;;;;3.45;3.17;;;20.90;99.90;;;;;;4975317;28;20027;-61
2022/08/28 04:49:40;;;;;;;3.20;3.00;;;20.90;99.90;;;;;;4957967;28;20146;-61
2022/08/28 04:52:06;;;;;;;2.50;2.30;;;20.90;99.90;;;;;;4975018;28;20019;-62
2022/08/28 04:54:33;;;;;;;2.92;2.72;;;21.00;99.90;;;;;;4975186;28;20065;-62
2022/08/28 04:56:59;;;;;;;2.60;2.40;;;21.00;99.90;;;;;;4957874;28;20545;-61
2022/08/28 04:59:25;;;;;;;3.92;3.00;;;21.10;99.90;;;;;;4957781;28;20023;-62
2022/08/28 05:01:51;;;;;;;2.50;2.30;;;21.20;99.90;;;;;;4974988;28;20054;-61
2022/08/28 05:04:18;;;;;;;2.60;2.20;;;21.20;99.90;;;;;;4975107;28;20454;-61
2022/08/28 05:06:45;;;;;;;2.83;2.58;;;21.30;99.90;;;;;;4974827;28;20054;-61
2022/08/28 05:09:12;;;;;;;4.30;2.90;;;21.30;99.90;;;;;;4974897;28;20019;-61
2022/08/28 05:11:38;;;;;;;3.95;3.25;;;21.30;99.90;;;;;;4975053;28;20050;-62
2022/08/28 05:14:08;;;;;;;3.67;2.85;;;21.30;99.90;;;;;;4974872;28;20059;-61
2022/08/28 05:16:44;;;;;;;2.97;2.75;;;21.40;99.90;;;;;;4974741;28;20023;-62
2022/08/28 05:19:10;;;;;;;4.90;3.30;;;21.40;99.90;;;;;;4974849;28;20025;-63
2022/08/28 05:21:36;;;;;;;3.45;3.15;;;21.50;99.90;;;;;;4974493;28;20098;-61
2022/08/28 05:24:03;;;;;;;3.30;2.90;;;21.50;99.90;;;;;;4974758;28;20077;-61
2022/08/28 05:26:29;;;;;;;4.00;3.60;;;21.60;99.90;;;;;;4974648;28;20043;-61
2022/08/28 05:28:55;;;;;;;4.00;3.60;;;21.60;99.90;;;;;;4974656;28;20392;-62
2022/08/28 05:31:22;;;;;;;3.78;3.47;;;21.60;99.90;;;;;;4957314;28;20122;-62
2022/08/28 05:33:49;;;;;;;4.38;3.13;;;21.60;99.90;;;;;;4974610;28;20441;-62
2022/08/28 05:36:16;;;;;;;3.00;2.80;;;21.60;99.90;;;;;;4974450;28;20019;-61
2022/08/28 05:38:43;;;;;;;3.55;3.17;;;21.70;99.90;;;;;;4974497;28;20027;-61
2022/08/28 05:41:09;;;;;;;3.47;3.17;;;21.80;99.90;;;;;;4974659;28;20022;-61
2022/08/28 05:43:35;;;;;;;3.28;3.03;;;21.90;99.90;;;;;;4974576;28;20042;-62
2022/08/28 05:46:09;;;;;;;4.20;3.80;;;22.00;99.90;;;;;;4974448;28;20018;-61
2022/08/28 05:48:35;;;;;;;4.90;3.42;;;22.00;99.90;;;;;;4974246;28;20027;-62
2022/08/28 05:51:06;;;;;;;4.63;3.83;;;22.00;99.90;;;;;;4974407;28;20019;-61
2022/08/28 05:53:40;;;;;;;6.85;4.82;;;22.00;99.90;;;;;;4974477;28;20042;-61
2022/08/28 05:56:09;;;;;;;;;;;22.20;99.90;;;;;;4974941;28;20038;-61
2022/08/28 05:58:36;;;;;;;4.35;3.63;;;22.20;99.90;;;;;;4956999;28;19910;-62
2022/08/28 06:01:42;;;;;;;3.90;3.60;;;22.30;99.90;;;;;;4974412;28;20109;-61
2022/08/28 06:04:17;;;;;;;4.80;4.30;;;22.40;99.90;;;;;;4933788;29;20023;-61
2022/08/28 06:06:43;;;;;;;5.93;4.85;;;22.50;99.90;;;;;;4970090;28;20035;-61
2022/08/28 06:09:26;;;;;;;5.95;4.60;;;22.70;99.90;;;;;;4956889;28;20026;-61
2022/08/28 06:11:52;;;;;;;;;;;22.80;99.90;;;;;;4974694;28;20098;-62
2022/08/28 06:14:19;;;;;;;5.00;4.50;;;22.90;99.90;;;;;;4974098;28;20411;-61
2022/08/28 06:16:48;;;;;;;5.93;4.72;;;23.20;99.90;;;;;;4974188;28;20026;-62
2022/08/28 06:19:15;;;;;;;6.45;5.07;;;25.30;99.90;;;;;;4974044;28;20026;-62
2022/08/28 06:21:41;;;;;;;5.80;4.60;;;27.70;99.90;;;;;;4974021;28;20019;-61
2022/08/28 06:24:10;;;;;;;4.70;4.15;;;29.50;97.30;;;;;;4974137;28;20023;-62
2022/08/28 06:26:36;;;;;;;4.38;3.58;;;31.00;93.80;;;;;;4973911;28;20058;-62
2022/08/28 06:29:05;;;;;;;3.00;2.67;;;32.30;90.50;;;;;;4974029;28;20019;-62
2022/08/28 06:31:30;;;;;;;3.33;3.03;;;33.40;84.80;;;;;;4974209;28;20098;-62
2022/08/28 06:33:57;;;;;;;3.17;2.88;;;34.10;79.70;;;;;;4973768;28;20113;-62
2022/08/28 06:36:26;;;;;;;6.72;4.13;;;34.90;74.90;;;;;;4973967;28;20026;-62
2022/08/28 06:38:53;;;;;;;4.72;3.67;;;35.50;69.80;;;;;;4974151;28;20144;-62
2022/08/28 06:41:20;;;;;;;3.90;3.53;;;35.50;68.10;;;;;;4977205;28;20026;-62
2022/08/28 06:43:46;;;;;;;4.43;3.53;;;35.80;67.10;;;;;;4977528;28;20026;-61
2022/08/28 06:46:12;;;;;;;4.15;3.65;;;36.20;64.90;;;;;;4977594;28;20476;-62
2022/08/28 06:48:38;;;;;;;3.60;3.30;;;36.60;62.90;;;;;;4977308;28;20048;-62
2022/08/28 06:51:08;;;;;;;3.85;3.08;;;37.00;61.80;;;;;;4977451;28;20045;-62
2022/08/28 06:53:35;;;;;;;3.58;3.22;;;37.30;60.20;;;;;;4977326;28;20034;-62
2022/08/28 06:56:07;;;;;;;5.63;4.00;;;37.50;59.30;;;;;;4977357;28;20015;-62
2022/08/28 06:58:34;;;;;;;8.30;5.32;;;37.70;57.10;;;;;;4977255;28;20054;-62
2022/08/28 07:01:04;;;;;;;5.22;4.72;;;37.70;57.10;;;;;;4977396;28;20101;-61
2022/08/28 07:03:30;;;;;;;4.50;4.10;;;37.80;57.50;;;;;;4977093;28;20567;-62
2022/08/28 07:06:00;;;;;;;6.68;4.60;;;38.10;57.20;;;;;;4977131;28;20069;-62
2022/08/28 07:08:28;;;;;;;4.97;3.88;;;38.20;56.90;;;;;;4977204;28;20441;-62
2022/08/28 07:10:54;;;;;;;5.13;4.00;;;38.40;54.80;;;;;;4977181;28;20031;-62
2022/08/28 07:13:21;;;;;;;4.72;4.10;;;38.70;56.10;;;;;;4959595;28;20039;-63
2022/08/28 07:15:47;;;;;;;4.40;3.97;;;38.80;55.00;;;;;;4977030;28;20041;-62
2022/08/28 07:18:13;;;;;;;4.00;3.60;;;39.00;55.20;;;;;;4976833;28;20054;-62
2022/08/28 07:20:39;;;;;;;3.35;3.15;;;39.20;53.50;;;;;;4976889;28;20081;-62
2022/08/28 07:23:06;;;;;;;7.47;4.00;;;39.40;52.00;;;;;;4976829;28;20038;-62
2022/08/28 07:25:31;;;;;;;5.10;3.80;;;39.80;50.70;;;;;;4976754;28;20433;-62
2022/08/28 07:27:58;;;;;;;4.10;3.75;;;39.50;50.30;;;;;;4976743;28;20109;-62
2022/08/28 07:30:24;;;;;;;4.43;4.00;;;39.60;50.60;;;;;;4976623;28;20102;-62
2022/08/28 07:32:49;;;;;;;4.80;4.25;;;40.00;50.70;;;;;;4976630;28;20117;-62
2022/08/28 07:35:16;;;;;;;5.20;4.45;;;40.30;48.90;;;;;;4976803;28;20030;-62
2022/08/28 07:37:42;;;;;;;4.93;4.22;;;40.30;48.80;;;;;;4976644;28;20081;-62
2022/08/28 07:40:09;;;;;;;4.03;3.72;;;40.30;49.60;;;;;;4976632;28;20022;-62
2022/08/28 07:45:20;;;;;;;4.38;3.97;;;40.10;48.80;;;;;;4976406;28;20077;-62
2022/08/28 07:47:45;;;;;;;4.53;4.13;;;40.30;49.20;;;;;;4976452;28;20428;-62
2022/08/28 07:50:12;;;;;;;9.45;6.30;;;40.40;49.20;;;;;;4976363;28;20019;-62
2022/08/28 07:52:37;;;;;;;5.10;4.30;;;40.00;48.30;;;;;;4975347;28;20038;-62
2022/08/28 07:55:05;;;;;;;5.40;4.90;;;39.70;49.30;;;;;;4976400;28;20026;-62
2022/08/28 07:57:31;;;;;;;5.22;4.72;;;39.70;49.00;;;;;;4976276;28;20585;-62
2022/08/28 07:59:58;;;;;;;4.18;3.88;;;40.10;49.50;;;;;;4976070;28;20050;-62
2022/08/28 08:02:24;;;;;;;3.97;3.67;;;40.50;48.40;;;;;;4976204;28;20483;-62
2022/08/28 08:04:49;;;;;;;6.32;4.90;;;40.90;47.80;;;;;;4976129;28;20033;-62
2022/08/28 08:07:16;;;;;;;4.80;4.35;;;41.20;46.60;;;;;;4958771;28;20105;-62
2022/08/28 08:09:43;;;;;;;6.18;4.75;;;40.70;47.80;;;;;;4976071;28;20033;-62
2022/08/28 08:12:10;;;;;;;6.20;5.25;;;40.60;46.90;;;;;;4975996;28;20022;-62
2022/08/28 08:14:38;;;;;;;5.60;5.10;;;40.80;46.60;;;;;;4975865;28;20561;-62
2022/08/28 08:17:04;;;;;;;7.35;5.63;;;40.90;47.00;;;;;;4975983;28;20022;-62
2022/08/28 08:19:30;;;;;;;4.95;4.45;;;41.10;45.80;;;;;;4975835;28;20023;-62
2022/08/28 08:21:56;;;;;;;5.40;4.95;;;41.20;46.70;;;;;;4976026;28;20090;-62
2022/08/28 08:24:27;;;;;;;7.70;5.68;;;41.30;46.70;;;;;;4975827;28;20077;-62
2022/08/28 08:26:55;;;;;;;6.65;5.20;;;41.50;46.80;;;;;;4975540;28;20046;-62
2022/08/28 08:29:21;;;;;;;5.47;4.95;;;41.30;46.40;;;;;;4958189;28;20517;-62
2022/08/28 08:32:01;;;;;;;6.47;5.53;;;41.10;46.60;;;;;;4975681;28;20030;-62
2022/08/28 08:34:27;;;;;;;5.65;5.15;;;40.90;46.10;;;;;;4975486;28;20118;-63
2022/08/28 08:36:53;;;;;;;5.72;5.10;;;40.60;47.90;;;;;;4975507;28;20113;-62
2022/08/28 08:39:18;;;;;;;7.00;5.10;;;40.50;46.70;;;;;;4975607;28;20031;-62
2022/08/28 08:41:47;;;;;;;7.82;6.07;;;40.20;46.30;;;;;;4975306;28;20056;-62
2022/08/28 08:44:22;;;;;;;5.70;5.25;;;39.90;46.30;;;;;;4975186;28;20034;-62
2022/08/28 08:47:25;;;;;;;5.85;5.10;;;39.40;48.60;;;;;;4975345;28;20102;-62
2022/08/28 08:49:54;;;;;;;6.10;5.50;;;39.40;48.60;;;;;;4957974;28;20041;-62
2022/08/28 08:52:39;;;;;;;7.05;5.55;;;39.20;48.80;;;;;;4975120;28;20030;-62
2022/08/28 08:55:27;;;;;;;5.40;4.90;;;39.30;47.60;;;;;;4975281;28;20041;-62
2022/08/28 08:58:01;;;;;;;5.22;4.72;;;39.40;47.70;;;;;;4975024;28;20027;-62
2022/08/28 09:00:30;;;;;;;3.92;3.63;;;39.20;47.60;;;;;;4975164;28;20046;-63
2022/08/28 09:03:03;;;;;;;4.72;4.32;;;39.20;49.70;;;;;;4974819;28;20477;-63
2022/08/28 09:05:46;;;;;;;5.05;4.38;;;39.20;50.40;;;;;;4975077;28;20035;-63
2022/08/28 09:08:25;;;;;;;5.90;4.65;;;38.90;52.90;;;;;;4975022;28;20050;-63
2022/08/28 09:11:05;;;;;;;5.78;5.20;;;38.80;50.50;;;;;;4974995;28;20065;-63
2022/08/28 09:13:38;;;;;;;5.22;4.82;;;38.20;49.10;;;;;;4974722;28;20035;-63
2022/08/28 09:16:12;;;;;;;4.72;4.22;;;38.10;51.90;;;;;;4974930;28;20049;-63
2022/08/28 09:18:38;;;;;;;5.07;4.68;;;38.20;51.40;;;;;;4974804;28;20077;-63
2022/08/28 09:21:04;;;;;;;8.05;3.97;;;38.20;49.50;;;;;;4974851;28;20027;-63
2022/08/28 09:23:30;;;;;;;4.13;3.83;;;38.00;47.70;;;;;;4974780;28;20034;-63
2022/08/28 09:25:59;;;;;;;4.13;3.70;;;37.90;50.20;;;;;;4974693;28;20051;-63
2022/08/28 09:28:27;;;;;;;4.30;3.90;;;38.10;48.20;;;;;;4974543;28;20019;-62
2022/08/28 09:31:01;;;;;;;3.85;3.55;;;38.40;49.60;;;;;;4957402;28;20428;-63
2022/08/28 09:33:34;;;;;;;4.68;3.75;;;38.70;47.70;;;;;;4974523;28;20095;-63
2022/08/28 09:36:25;;;;;;;4.85;4.15;;;38.70;48.30;;;;;;4974652;28;20111;-63
2022/08/28 09:39:29;;;;;;;4.57;3.92;;;38.80;47.00;;;;;;4974576;28;20029;-63
2022/08/28 09:45:00;;;;;;;4.35;3.90;;;38.50;45.30;;;;;;4974490;28;20126;-63
2022/08/28 09:47:48;;;;;;;4.32;3.92;;;38.70;45.40;;;;;;4974477;28;20026;-63
2022/08/28 09:50:23;;;;;;;5.15;4.75;;;38.50;45.90;;;;;;4974620;28;20046;-63
2022/08/28 09:52:51;;;;;;;5.93;4.88;;;37.50;47.10;;;;;;4974375;28;20027;-63
2022/08/28 09:55:29;;;;;;;4.57;4.20;;;37.90;48.40;;;;;;4974363;28;20027;-63
2022/08/28 09:57:55;;;;;;;6.03;4.55;;;38.20;46.00;;;;;;4974504;28;20430;-63
2022/08/28 10:00:21;;;;;;;5.32;4.80;;;38.30;47.30;;;;;;4974390;28;20099;-64
2022/08/28 10:03:13;;;;;;;6.78;5.00;;;38.30;48.90;;;;;;4974232;28;20540;-62
2022/08/28 10:05:56;;;;;;;8.25;5.63;;;38.00;49.20;;;;;;4969662;28;20401;-63
2022/08/28 10:08:22;;;;;;;6.22;5.05;;;37.80;47.70;;;;;;4974429;28;20034;-63
2022/08/28 10:10:54;;;;;;;6.05;5.15;;;37.90;48.30;;;;;;4974080;28;20019;-63
2022/08/28 10:13:27;;;;;;;6.70;5.25;;;37.90;50.20;;;;;;4974131;28;20106;-63
2022/08/28 10:16:08;;;;;;;5.93;5.32;;;37.90;48.00;;;;;;4977104;28;20031;-63
2022/08/28 10:18:42;;;;;;;5.50;4.97;;;37.90;46.70;;;;;;4978015;28;20031;-63
2022/08/28 10:21:11;;;;;;;6.28;4.97;;;38.20;50.40;;;;;;4977971;28;20047;-62
2022/08/28 10:23:42;;;;;;;7.70;5.90;;;38.30;46.00;;;;;;4977968;28;20033;-63
2022/08/28 10:26:14;;;;;;;6.32;5.65;;;38.00;45.80;;;;;;4977662;28;20560;-62
2022/08/28 10:29:09;;;;;;;9.40;6.45;;;38.00;46.70;;;;;;4977926;28;20031;-63
2022/08/28 10:31:42;;;;;;;6.75;5.38;;;38.20;46.70;;;;;;4977843;28;20050;-63
2022/08/28 10:34:16;;;;;;;5.43;4.93;;;38.30;47.40;;;;;;4960501;28;20441;-63
2022/08/28 10:36:51;;;;;;;5.25;4.72;;;38.40;47.30;;;;;;4977899;28;20124;-63
2022/08/28 10:39:44;;;;;;;5.15;4.65;;;38.70;46.10;;;;;;4977634;28;20015;-63
2022/08/28 10:42:10;;;;;;;5.63;4.70;;;39.10;48.90;;;;;;4977798;28;20381;-63
2022/08/28 10:44:55;;;;;;;4.70;4.30;;;38.70;46.90;;;;;;4977691;28;20031;-62
2022/08/28 10:47:23;;;;;;;7.05;6.20;;;38.80;49.20;;;;;;4977633;28;20572;-62
2022/08/28 10:49:52;;;;;;;8.18;5.57;;;38.80;45.80;;;;;;4977630;28;20062;-63
2022/08/28 10:52:45;;;;;;;5.80;5.30;;;38.20;47.90;;;;;;4977355;28;20027;-63
2022/08/28 10:55:33;;;;;;;7.60;5.65;;;37.80;48.00;;;;;;4977301;28;20061;-63
2022/08/28 10:58:07;;;;;;;7.20;5.43;;;37.20;48.20;;;;;;4977480;28;20110;-63
2022/08/28 11:00:34;;;;;;;5.38;4.70;;;36.80;48.40;;;;;;4977181;28;20101;-63
2022/08/28 11:03:09;;;;;;;5.07;4.50;;;36.70;47.90;;;;;;4977368;28;20023;-63
2022/08/28 11:05:47;;;;;;;8.18;5.65;;;36.70;50.90;;;;;;4977229;28;20031;-63
2022/08/28 11:08:39;;;;;;;6.07;5.47;;;37.00;52.00;;;;;;4977151;28;20109;-63
2022/08/28 11:11:13;;;;;;;6.28;5.32;;;37.20;51.30;;;;;;4974976;28;20370;-63
2022/08/28 11:13:57;;;;;;;6.45;5.80;;;37.40;50.10;;;;;;4977077;28;20065;-63
2022/08/28 11:16:29;;;;;;;7.45;5.20;;;37.70;50.50;;;;;;4959940;28;20429;-63
2022/08/28 11:19:14;;;;;;;7.97;4.97;;;38.00;50.70;;;;;;4977048;28;20381;-63
2022/08/28 11:21:46;;;;;;;5.10;4.63;;;38.20;51.20;;;;;;4976858;28;20023;-62
2022/08/28 11:24:30;;;;;;;5.07;4.30;;;38.20;48.60;;;;;;4976872;28;20034;-63
2022/08/28 11:27:26;;;;;;;6.13;5.20;;;38.70;51.00;;;;;;4976550;28;20057;-63
2022/08/28 11:30:09;;;;;;;6.10;4.43;;;38.90;49.80;;;;;;4976802;28;20150;-63
2022/08/28 11:32:50;;;;;;;5.13;4.28;;;38.80;47.20;;;;;;4976806;28;20025;-63
2022/08/28 11:35:37;;;;;;;4.95;4.35;;;38.70;46.50;;;;;;4976651;28;20034;-63
2022/08/28 11:38:03;;;;;;;4.40;4.07;;;39.00;45.50;;;;;;4976548;28;20084;-63
2022/08/28 11:40:32;;;;;;;6.97;4.60;;;39.10;45.80;;;;;;4976632;28;20051;-62
2022/08/28 11:43:13;;;;;;;7.07;4.03;;;39.00;46.10;;;;;;4976617;28;20117;-63
2022/08/28 11:45:42;;;;;;;4.47;3.80;;;39.00;43.70;;;;;;4976597;28;20113;-63
2022/08/28 11:48:34;;;;;;;3.42;3.13;;;38.70;46.90;;;;;;4976419;28;20030;-63
2022/08/28 11:51:03;;;;;;;3.85;3.55;;;38.60;42.30;;;;;;4976439;28;20034;-63
2022/08/28 11:53:46;;;;;;;8.38;4.45;;;38.80;44.90;;;;;;4976243;28;20058;-63
2022/08/28 11:56:21;;;;;;;4.53;4.10;;;39.00;45.30;;;;;;4976365;28;20033;-63
2022/08/28 11:58:53;;;;;;;4.75;3.90;;;38.80;44.90;;;;;;4976378;28;20026;-63
2022/08/28 12:01:31;;;;;;;4.25;3.80;;;38.60;45.00;;;;;;4976288;28;20018;-62
2022/08/28 12:04:03;;;;;;;4.45;3.47;;;38.50;44.60;;;;;;4976168;28;20034;-62
2022/08/28 12:06:47;;;;;;;5.75;3.80;;;38.80;45.50;;;;;;4975990;28;20462;-63
2022/08/28 12:09:24;;;;;;;4.30;3.72;;;38.80;46.10;;;;;;4976064;28;20050;-63
2022/08/28 12:11:56;;;;;;;5.93;3.38;;;38.70;43.40;;;;;;4976061;28;20385;-63
2022/08/28 12:14:24;;;;;;;4.25;3.22;;;38.80;44.70;;;;;;4975830;28;20027;-62
2022/08/28 12:17:02;;;;;;;5.97;4.30;;;39.10;43.20;;;;;;4975942;28;20022;-62
2022/08/28 12:19:50;;;;;;;4.35;3.90;;;39.30;42.30;;;;;;4975831;28;20027;-63
2022/08/28 12:22:20;;;;;;;3.90;3.58;;;39.50;40.80;;;;;;4958129;28;20398;-63
2022/08/28 12:24:49;;;;;;;4.20;3.80;;;39.60;41.60;;;;;;4975717;28;20367;-63
2022/08/28 12:27:16;;;;;;;4.43;3.63;;;39.70;41.60;;;;;;4975608;28;20051;-63
2022/08/28 12:29:47;;;;;;;3.72;3.30;;;39.40;41.60;;;;;;4975857;28;20389;-63
2022/08/28 12:32:53;;;;;;;4.35;3.55;;;39.20;43.20;;;;;;4975127;28;20023;-63
2022/08/28 12:35:25;;;;;;;4.75;4.28;;;39.30;46.00;;;;;;4975560;28;20039;-63
2022/08/28 12:37:54;;;;;;;4.80;4.20;;;39.30;46.10;;;;;;4974487;28;20029;-63
2022/08/28 12:40:51;;;;;;;4.50;4.10;;;39.40;46.60;;;;;;4974496;28;20023;-63
2022/08/28 12:43:24;;;;;;;5.72;3.70;;;39.70;47.50;;;;;;4970816;28;20042;-62
2022/08/28 12:46:02;;;;;;;5.40;4.30;;;39.80;48.60;;;;;;4974711;28;20041;-62
2022/08/28 12:48:31;;;;;;;4.53;4.07;;;39.50;46.30;;;;;;4975156;28;20023;-62
2022/08/28 12:51:10;;;;;;;4.35;3.95;;;39.40;45.90;;;;;;4975143;28;20106;-63
2022/08/28 12:53:43;;;;;;;5.20;3.55;;;39.40;46.80;;;;;;4975187;28;20102;-63
2022/08/28 12:56:12;;;;;;;4.05;3.75;;;39.50;46.30;;;;;;4975249;28;20038;-62
2022/08/28 12:58:39;;;;;;;5.00;3.80;;;39.40;45.00;;;;;;4975135;28;20029;-63
2022/08/28 13:01:07;;;;;;;3.85;3.55;;;39.20;47.50;;;;;;4975220;28;20512;-63
2022/08/28 13:03:39;;;;;;;3.70;3.40;;;39.20;46.70;;;;;;4975113;28;20085;-62
2022/08/28 13:06:08;;;;;;;3.70;3.38;;;39.00;43.10;;;;;;4974915;28;20033;-63
2022/08/28 13:08:35;;;;;;;4.13;3.38;;;39.00;46.30;;;;;;4975100;28;20428;-63
2022/08/28 13:11:01;;;;;;;5.43;3.80;;;39.00;45.80;;;;;;4974921;28;20023;-63
2022/08/28 13:13:45;;;;;;;3.70;3.30;;;38.80;45.70;;;;;;4974927;28;20469;-63